Time;durP1;ratioP1;P1;durP2;ratioP2;P2;SDS_P1;SDS_P2;PMS_P1;PMS_P2;Temp;Humidity;BMP_temperature;BMP_pressure;BME280_temperature;BME280_humidity;BME280_pressure;Samples;Min_cycle;Max_cycle;Signal;HPM_P1;HPM_P2
2021/09/19 00:00:11;;;;;;;12.93;6.97;;;13.00;99.90;;;;;;5035329;28;20048;-87
2021/09/19 00:02:37;;;;;;;11.93;7.40;;;12.90;99.90;;;;;;5050762;28;20037;-86
2021/09/19 00:05:04;;;;;;;9.25;6.25;;;12.90;99.90;;;;;;5034995;28;20396;-87
2021/09/19 00:07:29;;;;;;;16.75;8.27;;;13.00;99.90;;;;;;5034897;28;20029;-87
2021/09/19 00:09:55;;;;;;;10.93;7.07;;;12.90;99.90;;;;;;5034971;28;20027;-87
2021/09/19 00:12:21;;;;;;;10.68;6.65;;;12.90;99.90;;;;;;5035143;28;20028;-86
2021/09/19 00:14:46;;;;;;;12.02;6.80;;;12.80;99.90;;;;;;5031464;28;20101;-87
2021/09/19 00:17:12;;;;;;;11.18;8.13;;;12.70;99.90;;;;;;5014028;28;20032;-87
2021/09/19 00:19:38;;;;;;;9.13;6.47;;;12.70;99.90;;;;;;5015783;28;20626;-87
2021/09/19 00:22:04;;;;;;;11.20;7.78;;;12.70;99.90;;;;;;5014067;28;20030;-87
2021/09/19 00:24:30;;;;;;;12.63;8.60;;;12.60;99.90;;;;;;5013658;28;20034;-86
2021/09/19 00:26:55;;;;;;;10.35;6.90;;;12.40;99.90;;;;;;5013809;28;20117;-86
2021/09/19 00:29:21;;;;;;;10.98;6.95;;;12.50;99.90;;;;;;5013693;28;20030;-87
2021/09/19 00:31:47;;;;;;;13.10;6.93;;;12.30;99.90;;;;;;5013603;28;20029;-86
2021/09/19 00:34:13;;;;;;;10.48;6.45;;;12.40;99.90;;;;;;5013626;28;20053;-87
2021/09/19 00:36:38;;;;;;;12.02;8.02;;;12.30;99.90;;;;;;5013619;28;20029;-86
2021/09/19 00:39:04;;;;;;;14.75;7.65;;;12.20;99.90;;;;;;5014759;28;20026;-87
2021/09/19 00:41:30;;;;;;;13.48;6.97;;;12.20;99.90;;;;;;5014844;28;20026;-87
2021/09/19 00:43:55;;;;;;;10.50;7.13;;;12.20;99.90;;;;;;5014602;28;20022;-87
2021/09/19 00:46:21;;;;;;;9.55;7.55;;;12.10;99.90;;;;;;5013573;28;20029;-86
2021/09/19 00:48:46;;;;;;;14.02;8.00;;;12.20;99.90;;;;;;5014886;28;20407;-87
2021/09/19 00:51:12;;;;;;;12.07;7.55;;;12.10;99.90;;;;;;5014609;28;20030;-87
2021/09/19 00:53:40;;;;;;;11.00;7.38;;;12.20;99.90;;;;;;5014461;28;20549;-86
2021/09/19 00:56:07;;;;;;;13.73;7.95;;;12.20;99.90;;;;;;5014395;28;20026;-86
2021/09/19 00:58:33;;;;;;;12.05;8.52;;;12.20;99.90;;;;;;5013180;28;20541;-87
2021/09/19 01:01:00;;;;;;;12.90;8.38;;;12.20;99.90;;;;;;5014474;28;20521;-87
2021/09/19 01:03:26;;;;;;;12.52;7.90;;;12.20;99.90;;;;;;5014415;28;20050;-87
2021/09/19 01:05:52;;;;;;;15.20;7.68;;;12.20;99.90;;;;;;5014183;28;20043;-87
2021/09/19 01:08:19;;;;;;;12.70;7.82;;;12.30;99.90;;;;;;5013056;28;20026;-87
2021/09/19 01:10:45;;;;;;;13.13;8.05;;;12.30;99.90;;;;;;5012890;28;20036;-87
2021/09/19 01:13:12;;;;;;;15.05;6.72;;;12.30;99.90;;;;;;5013981;28;20026;-87
2021/09/19 01:15:40;;;;;;;10.93;7.13;;;12.30;99.90;;;;;;5024371;28;20029;-86
2021/09/19 01:18:07;;;;;;;10.25;6.40;;;12.30;99.90;;;;;;5015908;28;20025;-86
2021/09/19 01:20:33;;;;;;;9.88;6.60;;;12.30;99.90;;;;;;5033860;28;20389;-86
2021/09/19 01:23:10;;;;;;;10.43;6.70;;;12.40;99.90;;;;;;5032639;28;20028;-87
2021/09/19 01:25:38;;;;;;;8.40;6.32;;;12.40;99.90;;;;;;5033548;28;20363;-86
2021/09/19 01:28:04;;;;;;;9.18;5.80;;;12.40;99.90;;;;;;5015940;28;20034;-87
2021/09/19 01:30:31;;;;;;;7.55;5.53;;;12.40;99.90;;;;;;5015864;28;20493;-86
2021/09/19 01:32:57;;;;;;;11.40;6.00;;;12.40;99.90;;;;;;5033617;28;20490;-87
2021/09/19 01:35:22;;;;;;;8.85;6.38;;;12.40;99.90;;;;;;5032215;28;20021;-87
2021/09/19 01:37:48;;;;;;;9.13;5.82;;;12.40;99.90;;;;;;5032095;28;20022;-87
2021/09/19 01:40:14;;;;;;;10.63;5.85;;;12.40;99.90;;;;;;5032241;28;20167;-87
2021/09/19 01:42:41;;;;;;;11.90;5.95;;;12.40;99.90;;;;;;5015665;28;20029;-87
2021/09/19 01:45:08;;;;;;;7.85;5.68;;;12.40;99.90;;;;;;5015464;28;20075;-87
2021/09/19 01:47:33;;;;;;;7.95;5.93;;;12.40;99.90;;;;;;5033262;28;20022;-87
2021/09/19 01:49:59;;;;;;;8.30;6.28;;;12.40;99.90;;;;;;5015441;28;20431;-87
2021/09/19 01:52:25;;;;;;;7.65;5.40;;;12.40;99.90;;;;;;5032016;28;20479;-86
2021/09/19 01:54:50;;;;;;;10.40;5.97;;;12.40;99.90;;;;;;5032992;28;20072;-86
2021/09/19 01:57:22;;;;;;;10.07;5.53;;;12.40;99.90;;;;;;5031812;28;20025;-87
2021/09/19 01:59:52;;;;;;;6.35;5.18;;;12.40;99.90;;;;;;5015396;28;20025;-87
2021/09/19 02:02:18;;;;;;;7.05;4.95;;;12.40;99.90;;;;;;5032993;28;20025;-87
2021/09/19 02:04:44;;;;;;;8.20;5.13;;;12.40;99.90;;;;;;5032507;28;20029;-87
2021/09/19 02:07:09;;;;;;;7.97;5.40;;;12.40;99.90;;;;;;5033012;28;20033;-86
2021/09/19 02:09:35;;;;;;;9.88;5.32;;;12.40;99.90;;;;;;5032934;28;20105;-86
2021/09/19 02:12:01;;;;;;;9.15;5.85;;;12.40;99.90;;;;;;5032721;28;20109;-87
2021/09/19 02:14:26;;;;;;;7.85;5.25;;;12.40;99.90;;;;;;5030571;28;20045;-87
2021/09/19 02:16:52;;;;;;;7.22;5.90;;;12.50;99.90;;;;;;5013044;28;20537;-87
2021/09/19 02:19:18;;;;;;;12.25;5.65;;;12.40;99.90;;;;;;5011325;28;20022;-87
2021/09/19 02:21:44;;;;;;;6.78;4.60;;;12.40;99.90;;;;;;5011882;28;20490;-86
2021/09/19 02:24:10;;;;;;;8.50;5.80;;;12.40;99.90;;;;;;5012891;28;20387;-88
2021/09/19 02:26:36;;;;;;;8.43;5.70;;;12.40;99.90;;;;;;5011694;28;20113;-87
2021/09/19 02:29:02;;;;;;;6.20;5.18;;;12.40;99.90;;;;;;5013154;28;20025;-86
2021/09/19 02:31:27;;;;;;;9.70;5.88;;;12.30;99.90;;;;;;5013029;28;20022;-87
2021/09/19 02:33:53;;;;;;;8.23;4.78;;;12.40;99.90;;;;;;5011429;28;20190;-87
2021/09/19 02:36:18;;;;;;;7.95;4.65;;;12.50;99.90;;;;;;5012813;28;20564;-87
2021/09/19 02:38:44;;;;;;;6.22;4.35;;;12.40;99.90;;;;;;5011623;28;20022;-87
2021/09/19 02:41:10;;;;;;;8.23;5.00;;;12.40;99.90;;;;;;5012956;28;20062;-87
2021/09/19 02:43:35;;;;;;;7.32;4.75;;;12.50;99.90;;;;;;5011683;28;20076;-86
2021/09/19 02:46:01;;;;;;;10.30;6.00;;;12.40;99.90;;;;;;5012573;28;20061;-86
2021/09/19 02:48:26;;;;;;;5.97;4.68;;;12.40;99.90;;;;;;5011830;28;20026;-86
2021/09/19 02:50:52;;;;;;;8.70;5.18;;;12.40;99.90;;;;;;5011977;28;20498;-87
2021/09/19 02:53:18;;;;;;;7.82;4.47;;;12.50;99.90;;;;;;5011791;28;20109;-87
2021/09/19 02:55:43;;;;;;;7.53;5.15;;;12.40;99.90;;;;;;5025079;28;20489;-85
2021/09/19 02:58:09;;;;;;;6.63;4.25;;;12.40;99.90;;;;;;5039556;28;20086;-86
2021/09/19 03:00:35;;;;;;;6.63;4.85;;;12.50;99.90;;;;;;5031398;28;20021;-87
2021/09/19 03:03:00;;;;;;;5.85;4.97;;;12.40;99.90;;;;;;5030955;28;20021;-87
2021/09/19 03:05:26;;;;;;;8.40;5.38;;;12.40;99.90;;;;;;5030593;28;20046;-87
2021/09/19 03:07:55;;;;;;;8.35;4.93;;;12.50;99.90;;;;;;5032021;28;20068;-87
2021/09/19 03:10:21;;;;;;;6.07;4.35;;;12.40;99.90;;;;;;5032019;28;20378;-87
2021/09/19 03:12:46;;;;;;;7.72;5.10;;;12.40;99.90;;;;;;5031470;28;20104;-86
2021/09/19 03:15:13;;;;;;;8.32;5.05;;;12.40;99.90;;;;;;5024648;28;20026;-87
2021/09/19 03:17:39;;;;;;;5.22;4.20;;;12.40;99.90;;;;;;5012249;28;20467;-86
2021/09/19 03:20:10;;;;;;;10.70;4.90;;;12.40;99.90;;;;;;5011037;28;20030;-87
2021/09/19 03:22:36;;;;;;;8.75;4.85;;;12.40;99.90;;;;;;5010786;28;20113;-87
2021/09/19 03:25:03;;;;;;;12.02;4.50;;;12.40;99.90;;;;;;5012047;28;20246;-86
2021/09/19 03:27:30;;;;;;;9.85;5.07;;;12.40;99.90;;;;;;5010774;28;20105;-88
2021/09/19 03:29:56;;;;;;;12.90;4.85;;;12.40;99.90;;;;;;5012163;28;20026;-87
2021/09/19 03:32:22;;;;;;;6.15;4.32;;;12.40;99.90;;;;;;5014737;28;20026;-86
2021/09/19 03:34:47;;;;;;;6.93;4.63;;;12.40;99.90;;;;;;5015953;28;20097;-86
2021/09/19 03:37:13;;;;;;;8.77;4.97;;;12.40;99.90;;;;;;5014695;28;20069;-87
2021/09/19 03:39:38;;;;;;;6.30;4.70;;;12.40;99.90;;;;;;5016017;28;20077;-87
2021/09/19 03:42:04;;;;;;;7.88;4.57;;;12.40;99.90;;;;;;5015743;28;20447;-86
2021/09/19 03:44:29;;;;;;;8.52;4.30;;;12.40;99.90;;;;;;5015588;28;20038;-87
2021/09/19 03:46:55;;;;;;;8.32;3.95;;;12.40;99.90;;;;;;5015891;28;20065;-87
2021/09/19 03:49:20;;;;;;;7.93;4.53;;;12.40;99.90;;;;;;5015714;28;20025;-86
2021/09/19 03:51:46;;;;;;;7.88;4.57;;;12.40;99.90;;;;;;5015676;28;20030;-87
2021/09/19 03:54:12;;;;;;;8.38;4.22;;;12.40;99.90;;;;;;5015420;28;20029;-86
2021/09/19 03:56:37;;;;;;;6.45;4.90;;;12.40;99.90;;;;;;5014280;28;20025;-87
2021/09/19 03:59:03;;;;;;;9.90;3.60;;;12.30;99.90;;;;;;5014707;28;20524;-87
2021/09/19 04:01:28;;;;;;;6.40;4.25;;;12.40;99.90;;;;;;5015657;28;20040;-86
2021/09/19 04:03:54;;;;;;;6.85;4.28;;;12.40;99.90;;;;;;5014090;28;20033;-86
2021/09/19 04:06:19;;;;;;;7.82;3.70;;;12.40;99.90;;;;;;5015280;28;20069;-86
2021/09/19 04:08:45;;;;;;;10.70;4.05;;;12.40;99.90;;;;;;5015704;28;20045;-87
2021/09/19 04:11:10;;;;;;;6.82;3.75;;;12.30;99.90;;;;;;5015473;28;20034;-87
2021/09/19 04:13:36;;;;;;;7.78;4.07;;;12.30;99.90;;;;;;5015783;28;20021;-87
2021/09/19 04:16:02;;;;;;;4.60;3.97;;;12.40;99.90;;;;;;5028825;28;20067;-87
2021/09/19 04:18:27;;;;;;;9.77;4.75;;;12.40;99.90;;;;;;5017854;28;20049;-88
2021/09/19 04:20:53;;;;;;;7.15;4.40;;;12.40;99.90;;;;;;5035484;28;20026;-87
2021/09/19 04:23:19;;;;;;;7.53;4.22;;;12.40;99.90;;;;;;5035229;28;20033;-87
2021/09/19 04:25:44;;;;;;;13.25;4.00;;;12.30;99.90;;;;;;5034745;28;20110;-87
2021/09/19 04:28:10;;;;;;;6.30;4.10;;;12.30;99.90;;;;;;5035036;28;20025;-87
2021/09/19 04:30:36;;;;;;;7.15;4.10;;;12.30;99.90;;;;;;5035100;28;20105;-87
2021/09/19 04:33:01;;;;;;;6.50;4.72;;;12.30;99.90;;;;;;5034963;28;20029;-86
2021/09/19 04:35:27;;;;;;;5.72;4.47;;;12.40;99.90;;;;;;5035069;28;20374;-87
2021/09/19 04:37:52;;;;;;;10.57;4.50;;;12.40;99.90;;;;;;5033913;28;20029;-87
2021/09/19 04:40:18;;;;;;;4.55;3.45;;;12.30;99.90;;;;;;5035218;28;20025;-87
2021/09/19 04:42:43;;;;;;;10.07;4.10;;;12.30;99.90;;;;;;5033853;28;20049;-86
2021/09/19 04:45:10;;;;;;;6.35;3.85;;;12.30;99.90;;;;;;5033805;28;20029;-86
2021/09/19 04:47:35;;;;;;;5.53;3.50;;;12.30;99.90;;;;;;5034726;28;20028;-87
2021/09/19 04:50:01;;;;;;;8.50;3.70;;;12.30;99.90;;;;;;5016932;28;20018;-87
2021/09/19 04:52:27;;;;;;;6.82;3.60;;;12.30;99.90;;;;;;5034435;28;20052;-87
2021/09/19 04:54:53;;;;;;;8.05;3.88;;;12.30;99.90;;;;;;5032922;28;20018;-87
2021/09/19 04:57:18;;;;;;;8.40;4.18;;;12.30;99.90;;;;;;5034301;28;20025;-87
2021/09/19 04:59:44;;;;;;;7.60;3.72;;;12.30;99.90;;;;;;5034379;28;20028;-87
2021/09/19 05:02:09;;;;;;;5.57;3.75;;;12.30;99.90;;;;;;5034374;28;20037;-87
2021/09/19 05:04:35;;;;;;;4.70;3.35;;;12.30;99.90;;;;;;5034045;28;20022;-87
2021/09/19 05:07:00;;;;;;;5.22;3.83;;;12.30;99.90;;;;;;5034030;28;20056;-86
2021/09/19 05:09:26;;;;;;;6.35;3.88;;;12.30;99.90;;;;;;5016393;28;20025;-87
2021/09/19 05:11:52;;;;;;;12.38;4.72;;;12.30;99.90;;;;;;5034099;28;20393;-87
2021/09/19 05:14:17;;;;;;;12.40;4.55;;;12.40;99.90;;;;;;5016381;28;20021;-87
2021/09/19 05:16:43;;;;;;;6.93;4.40;;;12.40;99.90;;;;;;5013372;28;20065;-88
2021/09/19 05:19:08;;;;;;;11.63;4.53;;;12.20;99.90;;;;;;5013018;28;20026;-87
2021/09/19 05:21:34;;;;;;;8.38;4.75;;;12.20;99.90;;;;;;5014133;28;20368;-87
2021/09/19 05:24:00;;;;;;;6.53;4.38;;;12.20;99.90;;;;;;5013806;28;20041;-87
2021/09/19 05:26:26;;;;;;;18.33;4.90;;;12.20;99.90;;;;;;5014091;28;20033;-87
2021/09/19 05:28:52;;;;;;;6.18;4.35;;;12.20;99.90;;;;;;5013305;28;20030;-88
2021/09/19 05:31:17;;;;;;;10.18;4.65;;;12.20;99.90;;;;;;5012875;28;20045;-86
2021/09/19 05:33:45;;;;;;;9.85;4.88;;;12.20;99.90;;;;;;5013734;28;20434;-87
2021/09/19 05:36:11;;;;;;;6.18;3.75;;;12.20;99.90;;;;;;5012486;28;20026;-86
2021/09/19 05:38:36;;;;;;;9.02;4.18;;;12.10;99.90;;;;;;5013734;28;20032;-86
2021/09/19 05:41:02;;;;;;;5.47;3.65;;;12.20;99.90;;;;;;5013824;28;20156;-87
2021/09/19 05:43:28;;;;;;;8.80;4.20;;;12.20;99.90;;;;;;5012583;28;20026;-87
2021/09/19 05:45:53;;;;;;;10.35;3.88;;;12.20;99.90;;;;;;5012263;28;20030;-86
2021/09/19 05:48:19;;;;;;;7.15;3.67;;;12.20;99.90;;;;;;5013638;28;20026;-86
2021/09/19 05:50:44;;;;;;;5.03;3.67;;;12.20;99.90;;;;;;5012369;28;20482;-87
2021/09/19 05:53:10;;;;;;;8.60;3.72;;;12.20;99.90;;;;;;5013634;28;20029;-86
2021/09/19 05:55:35;;;;;;;7.10;4.20;;;12.20;99.90;;;;;;5012833;28;20030;-87
2021/09/19 05:58:01;;;;;;;5.65;3.35;;;12.20;99.90;;;;;;5030722;28;20435;-86
2021/09/19 06:00:27;;;;;;;4.57;2.88;;;12.20;99.90;;;;;;5038680;28;20476;-87
2021/09/19 06:02:52;;;;;;;5.30;2.80;;;12.20;99.90;;;;;;5027219;28;20394;-86
2021/09/19 06:05:18;;;;;;;6.40;3.75;;;12.20;99.90;;;;;;5013089;28;20038;-87
2021/09/19 06:07:43;;;;;;;7.78;3.15;;;12.20;99.90;;;;;;5013167;28;20037;-86
2021/09/19 06:10:09;;;;;;;9.40;3.45;;;12.20;99.90;;;;;;5028352;28;20029;-87
2021/09/19 06:12:35;;;;;;;6.82;2.70;;;12.20;99.90;;;;;;5013474;28;20532;-86
2021/09/19 06:15:00;;;;;;;6.90;3.08;;;12.10;99.90;;;;;;5018389;28;20022;-87
2021/09/19 06:17:26;;;;;;;4.28;3.17;;;12.30;99.90;;;;;;5032955;28;20547;-88
2021/09/19 06:19:52;;;;;;;4.43;2.92;;;12.20;99.90;;;;;;5015213;28;20032;-87
2021/09/19 06:22:18;;;;;;;3.92;2.97;;;12.10;99.90;;;;;;5033193;28;20029;-87
2021/09/19 06:24:44;;;;;;;10.00;3.28;;;12.20;99.90;;;;;;5015336;28;20033;-87
2021/09/19 06:27:12;;;;;;;3.33;2.92;;;12.20;99.90;;;;;;5032845;28;20104;-87
2021/09/19 06:29:38;;;;;;;6.57;2.80;;;12.20;99.90;;;;;;5033245;28;20025;-86
2021/09/19 06:32:04;;;;;;;5.40;3.00;;;12.20;99.90;;;;;;5032933;28;20463;-86
2021/09/19 06:34:30;;;;;;;5.70;3.63;;;12.20;99.90;;;;;;5032586;28;20037;-86
2021/09/19 06:36:55;;;;;;;3.83;2.88;;;12.20;99.90;;;;;;5032630;28;20414;-87
2021/09/19 06:39:21;;;;;;;7.80;3.65;;;12.20;99.90;;;;;;5032838;28;20022;-87
2021/09/19 06:41:50;;;;;;;5.53;3.05;;;12.20;99.90;;;;;;5032506;28;20393;-87
2021/09/19 06:44:17;;;;;;;3.70;2.50;;;12.20;99.90;;;;;;5014470;28;20092;-86
2021/09/19 06:46:42;;;;;;;4.63;3.03;;;12.10;99.90;;;;;;5014629;28;20026;-86
2021/09/19 06:49:08;;;;;;;3.85;2.92;;;12.20;99.90;;;;;;5032167;28;20108;-86
2021/09/19 06:51:33;;;;;;;13.13;3.15;;;12.20;99.90;;;;;;5014542;28;20120;-87
2021/09/19 06:53:59;;;;;;;5.30;3.65;;;12.20;99.90;;;;;;5032113;28;20060;-87
2021/09/19 06:56:25;;;;;;;5.40;3.10;;;12.20;99.90;;;;;;5032137;28;20021;-86
2021/09/19 06:58:50;;;;;;;3.20;2.70;;;12.10;99.90;;;;;;5014619;28;20112;-86
2021/09/19 07:01:16;;;;;;;4.03;2.95;;;12.10;99.90;;;;;;5032043;28;20025;-86
2021/09/19 07:03:43;;;;;;;4.28;3.10;;;12.20;99.90;;;;;;5032014;28;20033;-87
2021/09/19 07:06:08;;;;;;;4.15;2.92;;;12.20;99.90;;;;;;5030876;28;20566;-86
2021/09/19 07:08:34;;;;;;;7.85;3.08;;;12.20;99.90;;;;;;5032102;28;20105;-86
2021/09/19 07:11:00;;;;;;;4.38;3.25;;;12.20;99.90;;;;;;5031873;28;20033;-87
2021/09/19 07:13:26;;;;;;;6.10;3.67;;;12.30;99.90;;;;;;5032138;28;20025;-87
2021/09/19 07:15:54;;;;;;;8.25;3.65;;;12.30;99.90;;;;;;5031615;28;20032;-86
2021/09/19 07:18:23;;;;;;;8.13;3.08;;;12.40;99.90;;;;;;5032015;28;20080;-87
2021/09/19 07:20:49;;;;;;;5.07;3.25;;;12.30;99.90;;;;;;5030672;28;20032;-87
2021/09/19 07:23:15;;;;;;;5.57;3.20;;;12.40;99.90;;;;;;5030874;28;20029;-86
2021/09/19 07:25:42;;;;;;;4.47;2.92;;;12.50;99.90;;;;;;5031874;28;20052;-85
2021/09/19 07:28:08;;;;;;;5.32;3.05;;;12.40;99.90;;;;;;5031728;28;20025;-86
2021/09/19 07:30:34;;;;;;;6.13;3.35;;;12.50;99.90;;;;;;5028618;28;20028;-85
2021/09/19 07:33:00;;;;;;;7.90;3.33;;;12.50;99.90;;;;;;5025965;28;20075;-86
2021/09/19 07:35:26;;;;;;;6.40;3.88;;;12.50;99.90;;;;;;5027814;28;20013;-85
2021/09/19 07:37:52;;;;;;;5.47;3.42;;;12.50;99.90;;;;;;5037960;28;20488;-86
2021/09/19 07:40:18;;;;;;;5.78;3.35;;;12.50;99.90;;;;;;5027657;28;20036;-86
2021/09/19 07:42:44;;;;;;;7.10;3.75;;;12.60;99.90;;;;;;5027348;28;20032;-86
2021/09/19 07:45:10;;;;;;;10.00;4.05;;;12.60;99.90;;;;;;5026111;28;20053;-86
2021/09/19 07:47:36;;;;;;;5.45;3.70;;;12.60;99.90;;;;;;5041868;28;20018;-85
2021/09/19 07:50:04;;;;;;;3.78;3.38;;;12.70;99.90;;;;;;5030531;28;20035;-85
2021/09/19 07:52:29;;;;;;;7.93;3.28;;;12.80;99.90;;;;;;5030665;28;20029;-85
2021/09/19 07:54:55;;;;;;;6.38;3.47;;;12.80;99.90;;;;;;5010363;28;20021;-86
2021/09/19 07:57:22;;;;;;;5.22;3.70;;;12.90;99.90;;;;;;5023057;28;20021;-86
2021/09/19 07:59:49;;;;;;;6.45;3.58;;;12.90;99.90;;;;;;5027402;28;20036;-85
2021/09/19 08:02:14;;;;;;;10.40;4.15;;;12.90;99.90;;;;;;5027319;28;20032;-86
2021/09/19 08:04:40;;;;;;;6.63;3.58;;;13.00;99.90;;;;;;5026357;28;20025;-83
2021/09/19 08:07:05;;;;;;;4.65;3.17;;;13.00;99.90;;;;;;5026845;28;20671;-85
2021/09/19 08:09:31;;;;;;;7.07;4.00;;;13.10;99.90;;;;;;5027178;28;20061;-85
2021/09/19 08:11:57;;;;;;;6.72;3.78;;;13.20;99.90;;;;;;5026709;28;20030;-85
2021/09/19 08:14:22;;;;;;;6.07;3.58;;;13.10;99.90;;;;;;5009189;28;20556;-84
2021/09/19 08:16:48;;;;;;;5.90;3.17;;;13.30;99.90;;;;;;5024322;28;20087;-86
2021/09/19 08:19:13;;;;;;;12.48;3.72;;;13.30;99.90;;;;;;5028503;28;20502;-86
2021/09/19 08:21:40;;;;;;;6.50;3.35;;;13.50;99.90;;;;;;5029257;28;20033;-87
2021/09/19 08:24:08;;;;;;;7.90;4.40;;;13.50;99.90;;;;;;5020070;28;20046;-86
2021/09/19 08:26:35;;;;;;;13.45;3.60;;;13.50;99.90;;;;;;5030263;28;20025;-86
2021/09/19 08:29:00;;;;;;;5.07;3.35;;;13.60;99.90;;;;;;5030578;28;20030;-85
2021/09/19 08:31:26;;;;;;;6.13;3.42;;;13.50;99.90;;;;;;5030633;28;20026;-86
2021/09/19 08:33:51;;;;;;;6.40;3.70;;;13.40;99.90;;;;;;5024423;28;20053;-85
2021/09/19 08:36:18;;;;;;;8.48;3.70;;;13.50;99.90;;;;;;5032424;28;20028;-84
2021/09/19 08:38:44;;;;;;;5.70;4.03;;;13.50;99.90;;;;;;5033465;28;20017;-86
2021/09/19 08:41:09;;;;;;;6.05;3.80;;;13.60;99.90;;;;;;5032783;28;20025;-86
2021/09/19 08:43:35;;;;;;;6.28;3.65;;;13.70;99.90;;;;;;5031550;28;20496;-87
2021/09/19 08:46:01;;;;;;;8.25;3.90;;;13.70;99.90;;;;;;5031059;28;20501;-87
2021/09/19 08:48:28;;;;;;;6.13;3.40;;;13.80;99.90;;;;;;5031187;28;20040;-86
2021/09/19 08:50:54;;;;;;;7.95;3.67;;;13.90;99.90;;;;;;5023515;28;20494;-87
2021/09/19 08:53:21;;;;;;;9.52;3.03;;;14.00;99.90;;;;;;5030327;28;20029;-87
2021/09/19 08:55:48;;;;;;;7.75;3.83;;;14.10;99.90;;;;;;5030835;28;20021;-87
2021/09/19 08:58:13;;;;;;;7.85;4.50;;;14.10;99.90;;;;;;5028470;28;20024;-86
2021/09/19 09:00:47;;;;;;;12.48;4.20;;;14.10;99.90;;;;;;5038797;28;20034;-88
2021/09/19 09:03:15;;;;;;;6.28;3.50;;;14.40;99.90;;;;;;5043899;28;20036;-86
2021/09/19 09:05:41;;;;;;;7.20;3.70;;;14.40;99.90;;;;;;5045414;28;20501;-87
2021/09/19 09:08:08;;;;;;;5.97;3.85;;;14.40;99.90;;;;;;5015049;28;20033;-86
2021/09/19 09:10:42;;;;;;;10.85;3.70;;;14.50;99.90;;;;;;5030744;28;20083;-87
2021/09/19 09:13:16;;;;;;;12.35;3.78;;;14.50;99.90;;;;;;5030634;28;20421;-88
2021/09/19 09:15:48;;;;;;;;;;;14.50;99.90;;;;;;5043920;28;20022;-87
2021/09/19 09:18:27;;;;;;;7.47;4.25;;;14.60;99.90;;;;;;5023880;28;19905;-86
2021/09/19 09:21:06;;;;;;;5.22;3.28;;;14.70;99.90;;;;;;5022905;28;20075;-85
2021/09/19 09:23:50;;;;;;;7.32;3.05;;;14.80;99.90;;;;;;5030380;28;20155;-86
2021/09/19 09:26:30;;;;;;;6.45;3.20;;;14.80;99.90;;;;;;5025963;28;20022;-86
2021/09/19 09:29:08;;;;;;;5.75;3.22;;;15.00;99.90;;;;;;5029251;28;20075;-85
2021/09/19 09:31:38;;;;;;;9.07;2.92;;;15.00;99.90;;;;;;5031385;28;20112;-86
2021/09/19 09:34:20;;;;;;;8.25;3.45;;;15.20;99.90;;;;;;5030231;28;20105;-87
2021/09/19 09:36:59;;;;;;;8.45;3.45;;;15.10;99.90;;;;;;5031057;28;20400;-86
2021/09/19 09:39:38;;;;;;;5.88;3.60;;;15.10;99.90;;;;;;5013859;28;20021;-85
2021/09/19 09:42:03;;;;;;;4.90;3.08;;;15.20;99.90;;;;;;5030070;28;20030;-84
2021/09/19 09:44:38;;;;;;;6.18;3.35;;;15.40;99.90;;;;;;5028811;28;20090;-84
2021/09/19 09:47:07;;;;;;;4.38;3.40;;;15.30;99.90;;;;;;5029572;28;20025;-86
2021/09/19 09:49:42;;;;;;;6.72;3.40;;;15.40;99.90;;;;;;5030295;28;20181;-86
2021/09/19 09:52:09;;;;;;;4.68;3.25;;;15.50;99.90;;;;;;5014435;28;20405;-86
2021/09/19 09:55:00;;;;;;;5.22;3.30;;;15.60;99.90;;;;;;5030269;28;20030;-87
2021/09/19 09:58:02;;;;;;;5.20;3.55;;;15.70;99.90;;;;;;5016851;28;20046;-87
2021/09/19 10:00:29;;;;;;;5.72;3.25;;;16.00;99.90;;;;;;5020928;28;20021;-87
2021/09/19 10:02:54;;;;;;;7.03;4.07;;;16.10;99.90;;;;;;5029028;28;20030;-85
2021/09/19 10:05:20;;;;;;;9.60;3.28;;;16.20;99.90;;;;;;5025736;28;20045;-84
2021/09/19 10:07:47;;;;;;;5.35;3.50;;;16.20;99.90;;;;;;5028504;28;20120;-86
2021/09/19 10:10:23;;;;;;;6.68;3.13;;;16.30;99.90;;;;;;5041545;28;20049;-84
2021/09/19 10:12:53;;;;;;;10.10;3.10;;;16.10;99.90;;;;;;5021093;28;20029;-86
2021/09/19 10:15:20;;;;;;;14.20;3.47;;;16.10;99.90;;;;;;5010024;28;20048;-86
2021/09/19 10:17:46;;;;;;;5.22;3.28;;;16.20;99.90;;;;;;5027920;28;20025;-86
2021/09/19 10:20:28;;;;;;;4.72;2.90;;;16.50;99.90;;;;;;5028287;28;20021;-85
2021/09/19 10:23:15;;;;;;;6.05;3.60;;;16.70;99.90;;;;;;5028576;28;20041;-85
2021/09/19 10:25:50;;;;;;;14.02;4.53;;;16.80;99.90;;;;;;5027846;28;20029;-85
2021/09/19 10:28:35;;;;;;;7.90;3.45;;;16.90;99.90;;;;;;5014753;28;20172;-84
2021/09/19 10:31:15;;;;;;;5.60;3.00;;;17.10;99.90;;;;;;5036483;28;20505;-86
2021/09/19 10:33:52;;;;;;;4.82;3.10;;;17.40;99.90;;;;;;5027186;28;20029;-87
2021/09/19 10:36:37;;;;;;;6.53;3.60;;;17.50;99.90;;;;;;5028138;28;20024;-87
2021/09/19 10:39:16;;;;;;;6.68;3.28;;;17.90;99.90;;;;;;5027958;28;20036;-87
2021/09/19 10:42:03;;;;;;;4.20;3.00;;;18.00;99.90;;;;;;5028294;28;20061;-87
2021/09/19 10:44:45;;;;;;;7.28;3.13;;;17.70;99.90;;;;;;5041026;28;20032;-86
2021/09/19 10:47:25;;;;;;;19.65;3.95;;;17.50;99.90;;;;;;5028050;28;20061;-86
2021/09/19 10:50:22;;;;;;;8.07;3.47;;;17.50;99.90;;;;;;5020334;28;20029;-86
2021/09/19 10:52:56;;;;;;;8.52;3.30;;;17.50;99.90;;;;;;5027110;28;20405;-87
2021/09/19 10:55:29;;;;;;;;;;;17.60;99.90;;;;;;5034313;28;20040;-86
2021/09/19 10:58:00;;;;;;;10.40;3.92;;;17.60;99.90;;;;;;5023976;28;19988;-87
2021/09/19 11:00:29;;;;;;;7.28;3.55;;;17.60;99.90;;;;;;5025418;28;20084;-86
2021/09/19 11:03:09;;;;;;;5.78;3.17;;;17.70;99.90;;;;;;5045187;28;20024;-86
2021/09/19 11:05:38;;;;;;;5.10;3.53;;;17.90;99.90;;;;;;5034560;28;20033;-85
2021/09/19 11:08:15;;;;;;;11.57;3.58;;;18.20;99.90;;;;;;5026849;28;20486;-88
2021/09/19 11:10:56;;;;;;;6.40;3.05;;;18.40;99.90;;;;;;5028422;28;20104;-87
2021/09/19 11:13:42;;;;;;;4.25;2.75;;;18.80;99.90;;;;;;5014329;28;20029;-89
2021/09/19 11:16:27;;;;;;;5.07;2.80;;;18.80;99.90;;;;;;5027880;28;20028;-88
2021/09/19 11:18:55;;;;;;;4.47;2.70;;;18.80;99.90;;;;;;5027864;28;20091;-88
2021/09/19 11:21:21;;;;;;;6.68;3.22;;;18.90;99.90;;;;;;5028644;28;20117;-88
2021/09/19 11:23:52;;;;;;;7.50;3.38;;;18.90;99.90;;;;;;5027992;28;20534;-87
2021/09/19 11:26:36;;;;;;;3.88;2.70;;;18.70;99.90;;;;;;5027730;28;20436;-88
2021/09/19 11:29:11;;;;;;;4.50;2.42;;;18.60;99.90;;;;;;5028286;28;20026;-87
2021/09/19 11:31:38;;;;;;;5.68;3.30;;;18.60;99.90;;;;;;5036979;28;20021;-88
2021/09/19 11:34:07;;;;;;;4.72;3.05;;;18.60;99.90;;;;;;5028464;28;20021;-89
2021/09/19 11:36:34;;;;;;;4.50;3.25;;;18.90;99.90;;;;;;5035507;28;20022;-88
2021/09/19 11:38:59;;;;;;;5.15;3.15;;;19.10;99.90;;;;;;5027503;28;20025;-87
2021/09/19 11:41:26;;;;;;;6.07;3.42;;;19.20;99.90;;;;;;5028088;28;20478;-84
2021/09/19 11:43:54;;;;;;;7.63;3.63;;;19.20;99.90;;;;;;5028368;28;20029;-86
2021/09/19 11:46:23;;;;;;;5.32;3.20;;;19.10;99.90;;;;;;5028690;28;20025;-87
2021/09/19 11:48:49;;;;;;;4.72;2.95;;;18.80;99.90;;;;;;5027332;28;20514;-88
2021/09/19 11:51:17;;;;;;;10.27;4.05;;;19.00;99.90;;;;;;5028366;28;20038;-86
2021/09/19 11:53:55;;;;;;;4.13;2.80;;;19.80;99.90;;;;;;5040897;28;20025;-85
2021/09/19 11:56:23;;;;;;;4.55;2.80;;;20.10;99.90;;;;;;5020030;28;20379;-86
2021/09/19 11:58:50;;;;;;;5.90;2.95;;;20.00;99.90;;;;;;5031237;28;20022;-86
2021/09/19 12:01:23;;;;;;;7.38;3.53;;;19.40;99.90;;;;;;5031225;28;20033;-85
2021/09/19 12:03:49;;;;;;;5.00;3.15;;;19.00;99.90;;;;;;5031088;28;20025;-83
2021/09/19 12:06:14;;;;;;;4.68;2.97;;;18.60;99.90;;;;;;5046911;28;20040;-83
2021/09/19 12:08:43;;;;;;;5.53;3.50;;;18.30;99.90;;;;;;5031359;28;20401;-83
2021/09/19 12:11:10;;;;;;;5.60;3.08;;;18.30;99.90;;;;;;5030348;28;20025;-84
2021/09/19 12:13:39;;;;;;;6.30;3.25;;;18.10;99.90;;;;;;5039489;28;20048;-84
2021/09/19 12:16:12;;;;;;;7.28;2.80;;;18.10;99.90;;;;;;5031229;28;20018;-83
2021/09/19 12:18:45;;;;;;;10.27;3.25;;;18.00;99.90;;;;;;5031318;28;20539;-84
2021/09/19 12:21:19;;;;;;;6.18;3.47;;;17.70;99.90;;;;;;5047093;28;20041;-84
2021/09/19 12:23:46;;;;;;;8.07;3.92;;;17.30;99.90;;;;;;5030642;28;20065;-84
2021/09/19 12:26:23;;;;;;;6.43;3.70;;;17.50;99.90;;;;;;5030578;28;20519;-84
2021/09/19 12:28:51;;;;;;;8.40;3.53;;;18.00;99.90;;;;;;5030549;28;20026;-84
2021/09/19 12:31:42;;;;;;;5.40;2.95;;;18.20;99.90;;;;;;5040589;28;20053;-85
2021/09/19 12:34:11;;;;;;;9.95;3.20;;;18.00;99.90;;;;;;5030250;28;20017;-84
2021/09/19 12:36:51;;;;;;;4.80;3.00;;;17.70;99.90;;;;;;5031241;28;20029;-82
2021/09/19 12:39:31;;;;;;;4.57;2.88;;;17.60;99.90;;;;;;5030677;28;20390;-82
2021/09/19 12:42:01;;;;;;;6.10;3.05;;;17.20;99.90;;;;;;5024177;28;20025;-83
2021/09/19 12:44:32;;;;;;;7.78;3.47;;;17.00;99.90;;;;;;5034156;28;20021;-85
2021/09/19 12:47:06;;;;;;;4.47;2.65;;;16.90;99.90;;;;;;5032939;28;20022;-83
2021/09/19 12:49:40;;;;;;;5.90;2.80;;;16.90;99.90;;;;;;5016568;28;20033;-84